createdAt,value
2022-12-31T00:00:26.726Z,300.38193
2022-12-31T00:15:28.961Z,34.70116
2022-12-31T00:30:31.255Z,4.33765
2022-12-31T00:45:33.567Z,0
2022-12-31T01:00:35.799Z,0
2022-12-31T01:15:38.109Z,0
2022-12-31T01:30:40.451Z,0
2022-12-31T01:45:42.832Z,0
2022-12-31T02:00:45.159Z,0
2022-12-31T02:15:47.592Z,0
2022-12-31T02:30:49.980Z,0
2022-12-31T02:45:52.291Z,0
2022-12-31T03:00:54.569Z,0
2022-12-31T03:15:56.835Z,0
2022-12-31T03:30:59.455Z,0
2022-12-31T03:46:02.034Z,0
2022-12-31T04:01:04.369Z,0
2022-12-31T04:16:06.742Z,0
2022-12-31T04:31:08.970Z,0
2022-12-31T04:46:11.186Z,0
2022-12-31T05:01:13.742Z,0
2022-12-31T05:16:16.409Z,0
2022-12-31T05:31:18.727Z,0
2022-12-31T05:46:21.174Z,0
2022-12-31T06:01:23.541Z,0
2022-12-31T06:16:25.905Z,0
2022-12-31T06:31:28.457Z,0
2022-12-31T06:46:30.873Z,0
2022-12-31T07:01:33.210Z,0
2022-12-31T07:16:35.587Z,0
2022-12-31T07:31:37.921Z,0
2022-12-31T07:46:40.349Z,0
2022-12-31T08:01:42.731Z,0
2022-12-31T08:16:45.161Z,0
2022-12-31T08:31:47.436Z,0
2022-12-31T08:46:49.700Z,0
2022-12-31T09:01:52.303Z,0
2022-12-31T09:16:54.736Z,0
2022-12-31T09:31:57.166Z,0
2022-12-31T09:46:59.438Z,0
2022-12-31T10:02:01.925Z,0
2022-12-31T10:17:04.368Z,0
2022-12-31T10:32:06.789Z,0
2022-12-31T10:47:09.157Z,0
2022-12-31T11:02:11.712Z,0
2022-12-31T11:17:14.031Z,0
2022-12-31T11:32:16.382Z,0
2022-12-31T11:47:18.622Z,0
2022-12-31T12:02:20.909Z,0
2022-12-31T12:17:23.412Z,0
2022-12-31T12:32:25.650Z,0
2022-12-31T12:47:28.077Z,0
2022-12-31T13:02:30.477Z,0
2022-12-31T13:17:32.978Z,0
2022-12-31T13:32:35.291Z,0
2022-12-31T13:47:37.509Z,0
2022-12-31T14:02:39.841Z,0
2022-12-31T14:17:42.285Z,0
2022-12-31T14:32:44.607Z,0
2022-12-31T14:47:46.842Z,0
2022-12-31T15:02:49.044Z,0
2022-12-31T15:17:51.299Z,3.25323
2022-12-31T15:32:53.792Z,40.12322
2022-12-31T15:47:56.033Z,206.03815
2022-12-31T16:02:58.405Z,574.73798
2022-12-31T16:18:00.814Z,751.49701
2022-12-31T16:33:03.134Z,985.72986
2022-12-31T16:48:05.574Z,2451.85376
2022-12-31T17:03:07.827Z,2071.22559
2022-12-31T17:18:10.118Z,2384.62036
2022-12-31T17:33:12.332Z,2645.96338
2022-12-31T17:48:14.610Z,4339.81396
2022-12-31T18:03:16.845Z,4271.49609
2022-12-31T18:18:24.350Z,4715.02002
2022-12-31T18:33:27.379Z,6218.01416
2022-12-31T18:48:29.728Z,6328.62402
2022-12-31T19:03:32.017Z,6954.32959
2022-12-31T19:18:34.424Z,7968.25391
2022-12-31T19:33:36.725Z,9001.69824
2022-12-31T19:48:39.091Z,7531.23633
2022-12-31T20:03:41.556Z,12370.96387
2022-12-31T20:18:43.797Z,9507.0332
2022-12-31T20:33:46.020Z,8595.04395
2022-12-31T20:48:48.257Z,11301.73438
2022-12-31T21:04:06.042Z,8656.85547
2022-12-31T21:19:09.311Z,8202.48633
2022-12-31T21:34:11.551Z,6402.36426
2022-12-31T21:49:13.937Z,8153.68848
2022-12-31T22:04:43.326Z,8013.79932
2022-12-31T22:20:26.486Z,6328.62402
2022-12-31T22:35:29.798Z,5293.01123
2022-12-31T22:50:32.085Z,3469.03174
2022-12-31T23:05:34.330Z,2642.71021
2022-12-31T23:20:36.548Z,1388.04639
2022-12-31T23:35:38.905Z,660.40643
2022-12-31T23:50:41.130Z,306.8884
